sensor_id;sensor_type;location;lat;lon;timestamp;temperature;humidity
37956;DHT22;23776;51.592;7.180;2022-08-01T00:01:51;19.20;99.90
37956;DHT22;23776;51.592;7.180;2022-08-01T00:04:17;19.20;99.90
37956;DHT22;23776;51.592;7.180;2022-08-01T00:06:42;19.30;99.90
37956;DHT22;23776;51.592;7.180;2022-08-01T00:09:08;19.30;99.90
37956;DHT22;23776;51.592;7.180;2022-08-01T00:13:59;19.30;99.90
37956;DHT22;23776;51.592;7.180;2022-08-01T00:16:25;19.30;99.90
37956;DHT22;23776;51.592;7.180;2022-08-01T00:18:51;19.20;99.90
37956;DHT22;23776;51.592;7.180;2022-08-01T00:21:17;16.50;99.90
37956;DHT22;23776;51.592;7.180;2022-08-01T00:23:43;19.20;99.90
37956;DHT22;23776;51.592;7.180;2022-08-01T00:26:11;19.20;99.90
37956;DHT22;23776;51.592;7.180;2022-08-01T00:28:37;19.20;99.90
37956;DHT22;23776;51.592;7.180;2022-08-01T00:31:03;19.10;99.90
37956;DHT22;23776;51.592;7.180;2022-08-01T00:33:28;19.20;99.90
37956;DHT22;23776;51.592;7.180;2022-08-01T00:35:54;19.20;99.90
37956;DHT22;23776;51.592;7.180;2022-08-01T00:38:20;19.10;99.90
37956;DHT22;23776;51.592;7.180;2022-08-01T00:40:46;19.10;99.90
37956;DHT22;23776;51.592;7.180;2022-08-01T00:43:11;19.10;99.90
37956;DHT22;23776;51.592;7.180;2022-08-01T00:45:37;19.10;99.90
37956;DHT22;23776;51.592;7.180;2022-08-01T00:48:03;19.10;99.90
37956;DHT22;23776;51.592;7.180;2022-08-01T00:50:29;19.20;99.90
37956;DHT22;23776;51.592;7.180;2022-08-01T00:52:55;19.20;99.90
37956;DHT22;23776;51.592;7.180;2022-08-01T00:55:21;19.20;99.90
37956;DHT22;23776;51.592;7.180;2022-08-01T00:57:48;19.20;99.90
37956;DHT22;23776;51.592;7.180;2022-08-01T01:00:14;19.20;99.90
37956;DHT22;23776;51.592;7.180;2022-08-01T01:02:40;19.20;99.90
37956;DHT22;23776;51.592;7.180;2022-08-01T01:05:06;19.20;99.90
37956;DHT22;23776;51.592;7.180;2022-08-01T01:07:55;19.20;99.90
37956;DHT22;23776;51.592;7.180;2022-08-01T01:10:28;19.20;99.90
37956;DHT22;23776;51.592;7.180;2022-08-01T01:13:04;19.30;99.90
37956;DHT22;23776;51.592;7.180;2022-08-01T01:15:39;19.20;99.90
37956;DHT22;23776;51.592;7.180;2022-08-01T01:18:20;19.20;99.90
37956;DHT22;23776;51.592;7.180;2022-08-01T01:20:56;19.10;99.90
37956;DHT22;23776;51.592;7.180;2022-08-01T01:28:52;19.30;99.90
37956;DHT22;23776;51.592;7.180;2022-08-01T01:31:20;19.20;99.90
37956;DHT22;23776;51.592;7.180;2022-08-01T01:33:48;19.30;99.90
37956;DHT22;23776;51.592;7.180;2022-08-01T01:36:16;19.20;99.90
37956;DHT22;23776;51.592;7.180;2022-08-01T01:38:45;19.20;99.90
37956;DHT22;23776;51.592;7.180;2022-08-01T01:41:13;19.20;99.90
37956;DHT22;23776;51.592;7.180;2022-08-01T01:43:40;19.20;99.90
37956;DHT22;23776;51.592;7.180;2022-08-01T01:46:07;19.10;99.90
37956;DHT22;23776;51.592;7.180;2022-08-01T01:48:34;19.20;99.90
37956;DHT22;23776;51.592;7.180;2022-08-01T01:51:01;19.20;99.90
37956;DHT22;23776;51.592;7.180;2022-08-01T01:53:28;19.20;99.90
37956;DHT22;23776;51.592;7.180;2022-08-01T01:55:57;19.20;99.90
37956;DHT22;23776;51.592;7.180;2022-08-01T01:58:24;19.20;99.90
37956;DHT22;23776;51.592;7.180;2022-08-01T02:00:52;19.20;99.90
37956;DHT22;23776;51.592;7.180;2022-08-01T02:03:20;19.20;99.90
37956;DHT22;23776;51.592;7.180;2022-08-01T02:05:48;19.30;99.90
37956;DHT22;23776;51.592;7.180;2022-08-01T02:08:15;19.20;99.90
37956;DHT22;23776;51.592;7.180;2022-08-01T02:10:42;19.20;99.90
37956;DHT22;23776;51.592;7.180;2022-08-01T02:13:32;19.20;99.90
37956;DHT22;23776;51.592;7.180;2022-08-01T02:15:58;19.20;99.90
37956;DHT22;23776;51.592;7.180;2022-08-01T02:18:24;19.20;99.90
37956;DHT22;23776;51.592;7.180;2022-08-01T02:20:52;19.10;99.90
37956;DHT22;23776;51.592;7.180;2022-08-01T02:23:20;19.10;99.90
37956;DHT22;23776;51.592;7.180;2022-08-01T02:25:50;19.10;99.90
37956;DHT22;23776;51.592;7.180;2022-08-01T02:28:25;19.20;99.90
37956;DHT22;23776;51.592;7.180;2022-08-01T02:30:56;19.20;99.90
37956;DHT22;23776;51.592;7.180;2022-08-01T02:33:26;19.10;99.90
37956;DHT22;23776;51.592;7.180;2022-08-01T02:35:58;19.10;99.90
37956;DHT22;23776;51.592;7.180;2022-08-01T02:38:27;19.20;99.90
37956;DHT22;23776;51.592;7.180;2022-08-01T02:40:56;19.20;99.90
37956;DHT22;23776;51.592;7.180;2022-08-01T02:43:26;19.20;99.90
37956;DHT22;23776;51.592;7.180;2022-08-01T02:45:58;19.20;99.90
37956;DHT22;23776;51.592;7.180;2022-08-01T02:48:25;19.20;99.90
37956;DHT22;23776;51.592;7.180;2022-08-01T02:50:55;19.30;99.90
37956;DHT22;23776;51.592;7.180;2022-08-01T02:53:23;19.20;99.90
37956;DHT22;23776;51.592;7.180;2022-08-01T02:55:51;19.20;99.90
37956;DHT22;23776;51.592;7.180;2022-08-01T02:58:19;19.00;99.90
37956;DHT22;23776;51.592;7.180;2022-08-01T03:03:13;18.90;99.90
37956;DHT22;23776;51.592;7.180;2022-08-01T03:05:40;19.00;99.90
37956;DHT22;23776;51.592;7.180;2022-08-01T03:08:08;19.00;99.90
37956;DHT22;23776;51.592;7.180;2022-08-01T03:10:37;19.00;99.90
37956;DHT22;23776;51.592;7.180;2022-08-01T03:13:05;19.00;99.90
37956;DHT22;23776;51.592;7.180;2022-08-01T03:15:33;19.00;99.90
37956;DHT22;23776;51.592;7.180;2022-08-01T03:18:01;19.00;99.90
37956;DHT22;23776;51.592;7.180;2022-08-01T03:20:29;18.90;99.90
37956;DHT22;23776;51.592;7.180;2022-08-01T03:22:56;18.80;99.90
37956;DHT22;23776;51.592;7.180;2022-08-01T03:25:24;18.80;99.90
37956;DHT22;23776;51.592;7.180;2022-08-01T03:27:55;18.70;99.90
37956;DHT22;23776;51.592;7.180;2022-08-01T03:30:23;18.80;99.90
37956;DHT22;23776;51.592;7.180;2022-08-01T03:32:49;18.80;99.90
37956;DHT22;23776;51.592;7.180;2022-08-01T03:35:15;18.80;99.90
37956;DHT22;23776;51.592;7.180;2022-08-01T03:37:44;18.80;99.90
37956;DHT22;23776;51.592;7.180;2022-08-01T03:40:16;18.80;99.90
37956;DHT22;23776;51.592;7.180;2022-08-01T03:42:47;18.80;99.90
37956;DHT22;23776;51.592;7.180;2022-08-01T03:45:24;18.80;99.90
37956;DHT22;23776;51.592;7.180;2022-08-01T03:48:02;18.80;99.90
37956;DHT22;23776;51.592;7.180;2022-08-01T03:50:30;18.80;99.90
37956;DHT22;23776;51.592;7.180;2022-08-01T03:53:00;18.80;99.90
37956;DHT22;23776;51.592;7.180;2022-08-01T03:55:28;18.80;99.90
37956;DHT22;23776;51.592;7.180;2022-08-01T04:00:23;18.80;99.90
37956;DHT22;23776;51.592;7.180;2022-08-01T04:02:51;18.80;99.90
37956;DHT22;23776;51.592;7.180;2022-08-01T04:05:17;18.80;99.90
37956;DHT22;23776;51.592;7.180;2022-08-01T04:07:47;18.80;99.90
37956;DHT22;23776;51.592;7.180;2022-08-01T04:10:13;18.90;99.90
37956;DHT22;23776;51.592;7.180;2022-08-01T04:12:39;18.80;99.90
37956;DHT22;23776;51.592;7.180;2022-08-01T04:15:05;18.80;99.90
37956;DHT22;23776;51.592;7.180;2022-08-01T04:17:31;18.90;99.90
37956;DHT22;23776;51.592;7.180;2022-08-01T04:19:57;18.90;99.90
37956;DHT22;23776;51.592;7.180;2022-08-01T04:22:22;18.90;99.90
37956;DHT22;23776;51.592;7.180;2022-08-01T04:24:50;18.90;99.90
37956;DHT22;23776;51.592;7.180;2022-08-01T04:27:27;18.90;99.90
37956;DHT22;23776;51.592;7.180;2022-08-01T04:29:57;18.90;99.90
37956;DHT22;23776;51.592;7.180;2022-08-01T04:32:26;18.90;99.90
37956;DHT22;23776;51.592;7.180;2022-08-01T04:34:54;18.90;99.90
37956;DHT22;23776;51.592;7.180;2022-08-01T04:37:22;19.00;99.90
37956;DHT22;23776;51.592;7.180;2022-08-01T04:39:49;19.00;99.90
37956;DHT22;23776;51.592;7.180;2022-08-01T04:42:17;19.00;99.90
37956;DHT22;23776;51.592;7.180;2022-08-01T04:44:44;19.00;99.90
37956;DHT22;23776;51.592;7.180;2022-08-01T04:47:10;19.00;99.90
37956;DHT22;23776;51.592;7.180;2022-08-01T04:49:36;19.00;99.90
37956;DHT22;23776;51.592;7.180;2022-08-01T04:52:02;19.10;99.90
37956;DHT22;23776;51.592;7.180;2022-08-01T04:54:29;19.10;99.90
37956;DHT22;23776;51.592;7.180;2022-08-01T04:56:56;19.10;99.90
37956;DHT22;23776;51.592;7.180;2022-08-01T04:59:29;19.00;99.90
37956;DHT22;23776;51.592;7.180;2022-08-01T05:02:17;19.00;99.90
37956;DHT22;23776;51.592;7.180;2022-08-01T05:04:44;18.90;99.90
37956;DHT22;23776;51.592;7.180;2022-08-01T05:07:11;19.00;99.90
37956;DHT22;23776;51.592;7.180;2022-08-01T05:09:38;19.00;99.90
37956;DHT22;23776;51.592;7.180;2022-08-01T05:12:05;19.10;99.90
37956;DHT22;23776;51.592;7.180;2022-08-01T05:14:31;19.10;99.90
37956;DHT22;23776;51.592;7.180;2022-08-01T05:16:58;19.20;99.90
37956;DHT22;23776;51.592;7.180;2022-08-01T05:19:25;19.10;99.90
37956;DHT22;23776;51.592;7.180;2022-08-01T05:21:50;19.20;99.90
37956;DHT22;23776;51.592;7.180;2022-08-01T05:24:16;19.20;99.90
37956;DHT22;23776;51.592;7.180;2022-08-01T05:26:42;19.10;99.90
37956;DHT22;23776;51.592;7.180;2022-08-01T05:29:08;19.20;99.90
37956;DHT22;23776;51.592;7.180;2022-08-01T05:31:33;19.10;99.90
37956;DHT22;23776;51.592;7.180;2022-08-01T05:34:03;19.00;99.90
37956;DHT22;23776;51.592;7.180;2022-08-01T05:36:29;19.10;99.90
37956;DHT22;23776;51.592;7.180;2022-08-01T05:38:55;19.00;99.90
37956;DHT22;23776;51.592;7.180;2022-08-01T05:41:21;19.00;99.90
37956;DHT22;23776;51.592;7.180;2022-08-01T05:43:46;19.10;99.90
37956;DHT22;23776;51.592;7.180;2022-08-01T05:46:12;19.10;99.90
37956;DHT22;23776;51.592;7.180;2022-08-01T05:48:38;19.20;99.90
37956;DHT22;23776;51.592;7.180;2022-08-01T05:51:03;15.60;99.90
37956;DHT22;23776;51.592;7.180;2022-08-01T05:53:29;19.20;99.90
37956;DHT22;23776;51.592;7.180;2022-08-01T05:55:55;19.20;99.90
37956;DHT22;23776;51.592;7.180;2022-08-01T05:58:21;19.30;99.90
37956;DHT22;23776;51.592;7.180;2022-08-01T06:00:46;19.30;99.90
37956;DHT22;23776;51.592;7.180;2022-08-01T06:03:12;19.50;99.90
37956;DHT22;23776;51.592;7.180;2022-08-01T06:05:39;19.50;99.90
37956;DHT22;23776;51.592;7.180;2022-08-01T06:08:05;19.60;99.90
37956;DHT22;23776;51.592;7.180;2022-08-01T06:10:30;19.60;98.50
37956;DHT22;23776;51.592;7.180;2022-08-01T06:12:56;19.60;98.50
37956;DHT22;23776;51.592;7.180;2022-08-01T06:15:22;19.50;98.60
37956;DHT22;23776;51.592;7.180;2022-08-01T06:17:47;19.60;98.60
37956;DHT22;23776;51.592;7.180;2022-08-01T06:20:13;19.70;98.90
37956;DHT22;23776;51.592;7.180;2022-08-01T06:22:39;19.90;98.90
37956;DHT22;23776;51.592;7.180;2022-08-01T06:25:05;20.00;98.40
37956;DHT22;23776;51.592;7.180;2022-08-01T06:27:34;20.10;97.90
37956;DHT22;23776;51.592;7.180;2022-08-01T06:30:00;20.20;96.10
37956;DHT22;23776;51.592;7.180;2022-08-01T06:32:26;20.30;93.00
37956;DHT22;23776;51.592;7.180;2022-08-01T06:34:52;20.20;93.00
37956;DHT22;23776;51.592;7.180;2022-08-01T06:37:18;20.20;94.70
37956;DHT22;23776;51.592;7.180;2022-08-01T06:39:44;20.30;94.70
37956;DHT22;23776;51.592;7.180;2022-08-01T06:42:09;20.60;94.40
37956;DHT22;23776;51.592;7.180;2022-08-01T06:44:35;20.60;93.60
37956;DHT22;23776;51.592;7.180;2022-08-01T06:47:01;20.70;92.50
37956;DHT22;23776;51.592;7.180;2022-08-01T06:49:26;20.60;91.80
37956;DHT22;23776;51.592;7.180;2022-08-01T06:51:52;20.70;90.90
37956;DHT22;23776;51.592;7.180;2022-08-01T06:54:17;20.50;91.00
37956;DHT22;23776;51.592;7.180;2022-08-01T06:56:43;20.30;94.50
37956;DHT22;23776;51.592;7.180;2022-08-01T06:59:09;20.20;96.00
37956;DHT22;23776;51.592;7.180;2022-08-01T07:01:34;20.00;96.30
37956;DHT22;23776;51.592;7.180;2022-08-01T07:04:00;19.90;96.80
37956;DHT22;23776;51.592;7.180;2022-08-01T07:06:26;20.10;96.60
37956;DHT22;23776;51.592;7.180;2022-08-01T07:08:52;20.10;95.30
37956;DHT22;23776;51.592;7.180;2022-08-01T07:11:19;19.90;96.40
37956;DHT22;23776;51.592;7.180;2022-08-01T07:13:46;19.80;95.90
37956;DHT22;23776;51.592;7.180;2022-08-01T07:16:15;19.90;95.90
37956;DHT22;23776;51.592;7.180;2022-08-01T07:18:41;20.00;95.80
37956;DHT22;23776;51.592;7.180;2022-08-01T07:21:07;20.00;95.60
37956;DHT22;23776;51.592;7.180;2022-08-01T07:23:33;20.10;95.20
37956;DHT22;23776;51.592;7.180;2022-08-01T07:25:59;20.30;95.30
37956;DHT22;23776;51.592;7.180;2022-08-01T07:28:27;20.30;95.20
37956;DHT22;23776;51.592;7.180;2022-08-01T07:30:53;20.70;93.20
37956;DHT22;23776;51.592;7.180;2022-08-01T07:33:19;20.60;92.10
37956;DHT22;23776;51.592;7.180;2022-08-01T07:35:44;20.90;92.00
37956;DHT22;23776;51.592;7.180;2022-08-01T07:38:10;21.20;86.90
37956;DHT22;23776;51.592;7.180;2022-08-01T07:40:36;21.40;85.70
37956;DHT22;23776;51.592;7.180;2022-08-01T07:43:01;21.60;79.70
37956;DHT22;23776;51.592;7.180;2022-08-01T07:45:27;21.40;79.80
37956;DHT22;23776;51.592;7.180;2022-08-01T07:47:53;21.10;84.40
37956;DHT22;23776;51.592;7.180;2022-08-01T07:50:19;21.10;83.00
37956;DHT22;23776;51.592;7.180;2022-08-01T07:52:44;21.10;87.20
37956;DHT22;23776;51.592;7.180;2022-08-01T07:55:11;21.20;84.30
37956;DHT22;23776;51.592;7.180;2022-08-01T07:57:37;21.00;85.80
37956;DHT22;23776;51.592;7.180;2022-08-01T08:00:05;21.00;80.30
37956;DHT22;23776;51.592;7.180;2022-08-01T08:02:32;21.20;83.70
37956;DHT22;23776;51.592;7.180;2022-08-01T08:04:58;21.40;75.60
37956;DHT22;23776;51.592;7.180;2022-08-01T08:07:24;21.10;77.60
37956;DHT22;23776;51.592;7.180;2022-08-01T08:09:49;21.30;80.40
37956;DHT22;23776;51.592;7.180;2022-08-01T08:12:15;21.20;79.10
37956;DHT22;23776;51.592;7.180;2022-08-01T08:14:40;21.20;86.80
37956;DHT22;23776;51.592;7.180;2022-08-01T08:17:06;21.50;85.50
37956;DHT22;23776;51.592;7.180;2022-08-01T08:19:32;21.70;78.30
37956;DHT22;23776;51.592;7.180;2022-08-01T08:21:59;22.00;77.90
37956;DHT22;23776;51.592;7.180;2022-08-01T08:24:26;22.20;61.50
37956;DHT22;23776;51.592;7.180;2022-08-01T08:26:56;22.40;58.50
37956;DHT22;23776;51.592;7.180;2022-08-01T08:29:22;22.40;55.20
37956;DHT22;23776;51.592;7.180;2022-08-01T08:31:48;22.30;41.70
37956;DHT22;23776;51.592;7.180;2022-08-01T08:34:15;22.40;49.50
37956;DHT22;23776;51.592;7.180;2022-08-01T08:36:40;22.40;49.20
37956;DHT22;23776;51.592;7.180;2022-08-01T08:39:06;22.50;44.70
37956;DHT22;23776;51.592;7.180;2022-08-01T08:41:33;22.70;46.00
37956;DHT22;23776;51.592;7.180;2022-08-01T08:44:09;22.80;30.00
37956;DHT22;23776;51.592;7.180;2022-08-01T08:46:42;22.90;39.50
37956;DHT22;23776;51.592;7.180;2022-08-01T08:49:08;23.10;35.70
37956;DHT22;23776;51.592;7.180;2022-08-01T08:51:38;23.40;24.30
37956;DHT22;23776;51.592;7.180;2022-08-01T08:54:05;23.40;1.20
37956;DHT22;23776;51.592;7.180;2022-08-01T08:56:31;23.20;2.00
37956;DHT22;23776;51.592;7.180;2022-08-01T08:59:01;23.00;9.20
37956;DHT22;23776;51.592;7.180;2022-08-01T09:01:27;23.00;16.50
37956;DHT22;23776;51.592;7.180;2022-08-01T09:03:53;23.00;1.00
37956;DHT22;23776;51.592;7.180;2022-08-01T09:06:19;22.80;1.00
37956;DHT22;23776;51.592;7.180;2022-08-01T09:08:45;22.80;1.00
37956;DHT22;23776;51.592;7.180;2022-08-01T09:11:11;22.90;4.80
37956;DHT22;23776;51.592;7.180;2022-08-01T09:13:37;22.80;1.00
37956;DHT22;23776;51.592;7.180;2022-08-01T09:16:05;22.80;11.20
37956;DHT22;23776;51.592;7.180;2022-08-01T09:18:38;22.70;9.10
37956;DHT22;23776;51.592;7.180;2022-08-01T09:26:04;22.40;11.40
37956;DHT22;23776;51.592;7.180;2022-08-01T09:28:30;22.50;1.00
37956;DHT22;23776;51.592;7.180;2022-08-01T09:30:59;22.80;5.50
37956;DHT22;23776;51.592;7.180;2022-08-01T09:36:13;22.90;7.30
37956;DHT22;23776;51.592;7.180;2022-08-01T09:38:38;23.00;1.00
37956;DHT22;23776;51.592;7.180;2022-08-01T09:41:04;23.40;5.50
37956;DHT22;23776;51.592;7.180;2022-08-01T09:43:31;23.40;1.00
37956;DHT22;23776;51.592;7.180;2022-08-01T09:45:57;23.50;1.00
37956;DHT22;23776;51.592;7.180;2022-08-01T09:48:23;23.60;1.00
37956;DHT22;23776;51.592;7.180;2022-08-01T09:50:50;23.60;1.00
37956;DHT22;23776;51.592;7.180;2022-08-01T09:53:17;23.60;1.00
37956;DHT22;23776;51.592;7.180;2022-08-01T09:55:43;23.90;1.00
37956;DHT22;23776;51.592;7.180;2022-08-01T09:58:10;24.10;1.00
37956;DHT22;23776;51.592;7.180;2022-08-01T10:00:38;24.10;1.00
37956;DHT22;23776;51.592;7.180;2022-08-01T10:03:20;24.10;1.00
37956;DHT22;23776;51.592;7.180;2022-08-01T10:05:46;24.10;1.00
37956;DHT22;23776;51.592;7.180;2022-08-01T10:08:12;24.20;1.00
37956;DHT22;23776;51.592;7.180;2022-08-01T10:10:38;24.10;1.00
37956;DHT22;23776;51.592;7.180;2022-08-01T10:13:04;24.10;1.00
37956;DHT22;23776;51.592;7.180;2022-08-01T10:15:31;24.10;1.00
37956;DHT22;23776;51.592;7.180;2022-08-01T10:17:59;24.10;1.00
37956;DHT22;23776;51.592;7.180;2022-08-01T10:20:28;24.10;1.00
37956;DHT22;23776;51.592;7.180;2022-08-01T10:22:55;24.10;1.00
37956;DHT22;23776;51.592;7.180;2022-08-01T10:25:21;24.20;1.00
37956;DHT22;23776;51.592;7.180;2022-08-01T10:27:49;24.40;1.00
37956;DHT22;23776;51.592;7.180;2022-08-01T10:30:15;24.50;1.00
37956;DHT22;23776;51.592;7.180;2022-08-01T10:32:41;24.50;1.00
37956;DHT22;23776;51.592;7.180;2022-08-01T10:35:10;24.70;1.00
37956;DHT22;23776;51.592;7.180;2022-08-01T10:37:43;24.90;1.00
37956;DHT22;23776;51.592;7.180;2022-08-01T10:40:11;24.60;1.00
37956;DHT22;23776;51.592;7.180;2022-08-01T10:42:37;25.10;1.00
37956;DHT22;23776;51.592;7.180;2022-08-01T10:45:05;25.30;1.00
37956;DHT22;23776;51.592;7.180;2022-08-01T10:47:53;25.40;99.90
37956;DHT22;23776;51.592;7.180;2022-08-01T10:53:11;25.50;99.90
37956;DHT22;23776;51.592;7.180;2022-08-01T10:58:30;25.50;1.00
37956;DHT22;23776;51.592;7.180;2022-08-01T11:04:02;25.60;1.00
37956;DHT22;23776;51.592;7.180;2022-08-01T11:06:42;25.70;1.00
37956;DHT22;23776;51.592;7.180;2022-08-01T11:11:57;26.20;99.90
37956;DHT22;23776;51.592;7.180;2022-08-01T11:14:22;26.40;99.90
37956;DHT22;23776;51.592;7.180;2022-08-01T11:16:48;26.40;99.90
37956;DHT22;23776;51.592;7.180;2022-08-01T11:19:13;26.70;99.90
37956;DHT22;23776;51.592;7.180;2022-08-01T11:27:28;27.10;37.20
37956;DHT22;23776;51.592;7.180;2022-08-01T11:30:21;26.90;99.90
37956;DHT22;23776;51.592;7.180;2022-08-01T11:32:57;26.70;99.90
37956;DHT22;23776;51.592;7.180;2022-08-01T11:35:24;26.70;99.90
37956;DHT22;23776;51.592;7.180;2022-08-01T11:37:52;26.90;1.00
37956;DHT22;23776;51.592;7.180;2022-08-01T11:40:24;27.20;99.90
37956;DHT22;23776;51.592;7.180;2022-08-01T11:43:16;27.40;1.00
37956;DHT22;23776;51.592;7.180;2022-08-01T11:45:54;27.60;99.90
37956;DHT22;23776;51.592;7.180;2022-08-01T11:48:25;27.80;93.10
37956;DHT22;23776;51.592;7.180;2022-08-01T11:50:53;27.90;99.90
37956;DHT22;23776;51.592;7.180;2022-08-01T11:53:19;27.90;99.90
37956;DHT22;23776;51.592;7.180;2022-08-01T11:55:46;27.90;99.90
37956;DHT22;23776;51.592;7.180;2022-08-01T11:58:13;27.60;99.90
37956;DHT22;23776;51.592;7.180;2022-08-01T12:00:39;27.30;99.90
37956;DHT22;23776;51.592;7.180;2022-08-01T12:03:07;26.90;99.90
37956;DHT22;23776;51.592;7.180;2022-08-01T12:05:34;26.60;1.00
37956;DHT22;23776;51.592;7.180;2022-08-01T12:08:02;26.40;99.90
37956;DHT22;23776;51.592;7.180;2022-08-01T12:10:32;26.20;99.90
37956;DHT22;23776;51.592;7.180;2022-08-01T12:13:04;26.10;1.00
37956;DHT22;23776;51.592;7.180;2022-08-01T12:15:32;26.00;99.90
37956;DHT22;23776;51.592;7.180;2022-08-01T12:18:05;26.00;90.40
37956;DHT22;23776;51.592;7.180;2022-08-01T12:20:36;26.10;1.00
37956;DHT22;23776;51.592;7.180;2022-08-01T12:23:05;26.30;99.90
37956;DHT22;23776;51.592;7.180;2022-08-01T12:25:33;26.50;99.90
37956;DHT22;23776;51.592;7.180;2022-08-01T12:28:05;26.90;99.90
37956;DHT22;23776;51.592;7.180;2022-08-01T12:30:31;27.30;1.00
37956;DHT22;23776;51.592;7.180;2022-08-01T12:33:01;28.00;99.90
37956;DHT22;23776;51.592;7.180;2022-08-01T12:35:28;28.20;1.00
37956;DHT22;23776;51.592;7.180;2022-08-01T12:37:56;27.70;1.00
37956;DHT22;23776;51.592;7.180;2022-08-01T12:40:24;27.30;86.60
37956;DHT22;23776;51.592;7.180;2022-08-01T12:42:53;27.00;99.90
37956;DHT22;23776;51.592;7.180;2022-08-01T12:45:21;26.70;99.90
37956;DHT22;23776;51.592;7.180;2022-08-01T12:47:49;26.10;99.90
37956;DHT22;23776;51.592;7.180;2022-08-01T12:50:20;25.80;99.90
37956;DHT22;23776;51.592;7.180;2022-08-01T12:52:46;25.70;1.00
37956;DHT22;23776;51.592;7.180;2022-08-01T12:55:23;26.00;1.00
37956;DHT22;23776;51.592;7.180;2022-08-01T12:58:12;26.80;99.90
37956;DHT22;23776;51.592;7.180;2022-08-01T13:00:38;28.10;99.90
37956;DHT22;23776;51.592;7.180;2022-08-01T13:03:11;29.50;1.00
37956;DHT22;23776;51.592;7.180;2022-08-01T13:05:57;30.40;99.90
37956;DHT22;23776;51.592;7.180;2022-08-01T13:08:30;31.30;99.90
37956;DHT22;23776;51.592;7.180;2022-08-01T13:11:08;32.40;99.90
37956;DHT22;23776;51.592;7.180;2022-08-01T13:16:05;32.30;99.90
37956;DHT22;23776;51.592;7.180;2022-08-01T13:18:33;32.10;99.90
37956;DHT22;23776;51.592;7.180;2022-08-01T13:21:14;31.60;99.90
37956;DHT22;23776;51.592;7.180;2022-08-01T13:29:17;31.60;99.90
37956;DHT22;23776;51.592;7.180;2022-08-01T13:31:44;31.90;99.90
37956;DHT22;23776;51.592;7.180;2022-08-01T13:34:10;31.90;99.90
37956;DHT22;23776;51.592;7.180;2022-08-01T13:36:37;31.70;99.90
37956;DHT22;23776;51.592;7.180;2022-08-01T13:39:04;31.40;99.90
37956;DHT22;23776;51.592;7.180;2022-08-01T13:41:49;30.90;99.90
37956;DHT22;23776;51.592;7.180;2022-08-01T13:44:15;30.40;99.90
37956;DHT22;23776;51.592;7.180;2022-08-01T13:46:42;30.20;99.90
37956;DHT22;23776;51.592;7.180;2022-08-01T13:49:08;30.00;99.90
37956;DHT22;23776;51.592;7.180;2022-08-01T13:51:34;30.40;99.90
37956;DHT22;23776;51.592;7.180;2022-08-01T13:54:00;30.30;99.90
37956;DHT22;23776;51.592;7.180;2022-08-01T13:56:27;30.30;99.90
37956;DHT22;23776;51.592;7.180;2022-08-01T13:58:53;31.00;99.90
37956;DHT22;23776;51.592;7.180;2022-08-01T14:01:19;31.60;99.90
37956;DHT22;23776;51.592;7.180;2022-08-01T14:03:46;31.60;99.90
37956;DHT22;23776;51.592;7.180;2022-08-01T14:06:12;32.30;99.90
37956;DHT22;23776;51.592;7.180;2022-08-01T14:08:37;33.20;99.90
37956;DHT22;23776;51.592;7.180;2022-08-01T14:11:03;34.20;99.90
37956;DHT22;23776;51.592;7.180;2022-08-01T14:13:28;34.20;99.90
37956;DHT22;23776;51.592;7.180;2022-08-01T14:15:54;34.00;99.90
37956;DHT22;23776;51.592;7.180;2022-08-01T14:18:20;33.30;99.90
37956;DHT22;23776;51.592;7.180;2022-08-01T14:20:46;32.50;99.90
37956;DHT22;23776;51.592;7.180;2022-08-01T14:23:11;31.50;99.90
37956;DHT22;23776;51.592;7.180;2022-08-01T14:25:38;30.90;99.90
37956;DHT22;23776;51.592;7.180;2022-08-01T14:28:04;31.30;99.90
37956;DHT22;23776;51.592;7.180;2022-08-01T14:30:32;31.60;99.90
37956;DHT22;23776;51.592;7.180;2022-08-01T14:32:57;31.90;99.90
37956;DHT22;23776;51.592;7.180;2022-08-01T14:35:23;31.80;99.90
37956;DHT22;23776;51.592;7.180;2022-08-01T14:37:49;31.30;99.90
37956;DHT22;23776;51.592;7.180;2022-08-01T14:40:15;31.10;99.90
37956;DHT22;23776;51.592;7.180;2022-08-01T14:42:40;32.00;99.90
37956;DHT22;23776;51.592;7.180;2022-08-01T14:45:07;33.20;99.90
37956;DHT22;23776;51.592;7.180;2022-08-01T14:47:41;34.50;99.90
37956;DHT22;23776;51.592;7.180;2022-08-01T14:50:09;34.50;99.90
37956;DHT22;23776;51.592;7.180;2022-08-01T14:52:36;33.40;99.90
37956;DHT22;23776;51.592;7.180;2022-08-01T14:55:02;32.20;99.90
37956;DHT22;23776;51.592;7.180;2022-08-01T14:57:28;32.00;99.90
37956;DHT22;23776;51.592;7.180;2022-08-01T14:59:54;31.70;99.90
37956;DHT22;23776;51.592;7.180;2022-08-01T15:02:20;31.30;99.90
37956;DHT22;23776;51.592;7.180;2022-08-01T15:04:47;31.60;99.90
37956;DHT22;23776;51.592;7.180;2022-08-01T15:07:14;32.20;99.90
37956;DHT22;23776;51.592;7.180;2022-08-01T15:09:40;32.40;99.90
37956;DHT22;23776;51.592;7.180;2022-08-01T15:12:06;31.90;99.90
37956;DHT22;23776;51.592;7.180;2022-08-01T15:14:32;31.40;99.90
37956;DHT22;23776;51.592;7.180;2022-08-01T15:17:14;30.90;99.90
37956;DHT22;23776;51.592;7.180;2022-08-01T15:19:40;30.40;99.90
37956;DHT22;23776;51.592;7.180;2022-08-01T15:22:05;30.30;99.90
37956;DHT22;23776;51.592;7.180;2022-08-01T15:24:31;30.30;99.90
37956;DHT22;23776;51.592;7.180;2022-08-01T15:26:56;30.30;99.90
37956;DHT22;23776;51.592;7.180;2022-08-01T15:29:22;30.30;99.90
37956;DHT22;23776;51.592;7.180;2022-08-01T15:31:50;30.30;99.90
37956;DHT22;23776;51.592;7.180;2022-08-01T15:34:15;29.80;99.90
37956;DHT22;23776;51.592;7.180;2022-08-01T15:36:41;29.50;99.90
37956;DHT22;23776;51.592;7.180;2022-08-01T15:39:09;29.10;99.90
37956;DHT22;23776;51.592;7.180;2022-08-01T15:41:35;28.80;99.90
37956;DHT22;23776;51.592;7.180;2022-08-01T15:44:01;28.60;99.90
37956;DHT22;23776;51.592;7.180;2022-08-01T15:46:26;28.50;99.90
37956;DHT22;23776;51.592;7.180;2022-08-01T15:48:52;28.40;99.90
37956;DHT22;23776;51.592;7.180;2022-08-01T15:51:18;28.30;99.90
37956;DHT22;23776;51.592;7.180;2022-08-01T15:53:43;28.20;99.90
37956;DHT22;23776;51.592;7.180;2022-08-01T15:56:11;28.70;99.90
37956;DHT22;23776;51.592;7.180;2022-08-01T15:58:36;29.80;99.90
37956;DHT22;23776;51.592;7.180;2022-08-01T16:01:02;32.80;99.90
37956;DHT22;23776;51.592;7.180;2022-08-01T16:03:28;32.90;99.90
37956;DHT22;23776;51.592;7.180;2022-08-01T16:05:53;33.70;99.90
37956;DHT22;23776;51.592;7.180;2022-08-01T16:08:20;33.60;99.90
37956;DHT22;23776;51.592;7.180;2022-08-01T16:10:45;32.90;99.90
37956;DHT22;23776;51.592;7.180;2022-08-01T16:13:11;32.20;99.90
37956;DHT22;23776;51.592;7.180;2022-08-01T16:15:37;31.70;99.90
37956;DHT22;23776;51.592;7.180;2022-08-01T16:18:09;32.50;99.90
37956;DHT22;23776;51.592;7.180;2022-08-01T16:20:37;33.60;99.90
37956;DHT22;23776;51.592;7.180;2022-08-01T16:23:03;34.10;99.90